createdAt,value
2022-10-07T00:00:35.874Z,9.3
2022-10-07T00:01:42.062Z,9.3
2022-10-07T00:02:48.198Z,9.3
2022-10-07T00:03:54.371Z,9.2
2022-10-07T00:05:00.541Z,9.2
2022-10-07T00:06:06.707Z,9.2
2022-10-07T00:07:12.890Z,9.2
2022-10-07T00:08:18.065Z,9.2
2022-10-07T00:09:24.243Z,9.2
2022-10-07T00:10:30.413Z,9.2
2022-10-07T00:11:36.622Z,9.2
2022-10-07T00:12:42.751Z,9.2
2022-10-07T00:13:48.925Z,9.2
2022-10-07T00:14:55.093Z,9.2
2022-10-07T00:16:01.242Z,9.2
2022-10-07T00:17:07.434Z,9.2
2022-10-07T00:18:13.585Z,9.2
2022-10-07T00:19:19.772Z,9.2
2022-10-07T00:20:25.942Z,9.2
2022-10-07T00:21:32.104Z,9.2
2022-10-07T00:22:37.294Z,9.2
2022-10-07T00:23:43.486Z,9.2
2022-10-07T00:24:49.629Z,9.1
2022-10-07T00:25:55.796Z,9.2
2022-10-07T00:27:01.032Z,9.2
2022-10-07T00:28:07.169Z,9.2
2022-10-07T00:29:13.321Z,9.2
2022-10-07T00:30:19.508Z,9.2
2022-10-07T00:31:25.661Z,9.2
2022-10-07T00:32:31.857Z,9.2
2022-10-07T00:33:38.011Z,9.2
2022-10-07T00:34:44.172Z,9.2
2022-10-07T00:35:50.349Z,9.2
2022-10-07T00:36:56.507Z,9.2
2022-10-07T00:38:02.689Z,9.2
2022-10-07T00:39:08.957Z,9.2
2022-10-07T00:40:15.031Z,9.2
2022-10-07T00:41:20.203Z,9.2
2022-10-07T00:42:26.376Z,9.2
2022-10-07T00:43:32.552Z,9.2
2022-10-07T00:44:38.722Z,9.2
2022-10-07T00:45:44.883Z,9.2
2022-10-07T00:46:51.047Z,9.2
2022-10-07T00:47:57.235Z,9.1
2022-10-07T00:49:03.402Z,9.1
2022-10-07T00:50:09.571Z,9.1
2022-10-07T00:51:15.821Z,9.1
2022-10-07T00:52:21.911Z,9.2
2022-10-07T00:53:28.077Z,9.2
2022-10-07T00:54:34.241Z,9.2
2022-10-07T00:55:39.423Z,9.1
2022-10-07T00:56:45.612Z,9.1
2022-10-07T00:57:51.773Z,9.1
2022-10-07T01:00:04.113Z,9.2
2022-10-07T01:01:10.271Z,9.2
2022-10-07T01:02:16.492Z,9.2
2022-10-07T01:03:22.616Z,9.2
2022-10-07T01:04:28.784Z,9.2
2022-10-07T01:05:34.985Z,9.1
2022-10-07T01:06:41.131Z,9.1
2022-10-07T01:07:47.301Z,9.1
2022-10-07T01:08:53.528Z,9.1
2022-10-07T01:09:58.759Z,9.1
2022-10-07T01:11:04.823Z,9.1
2022-10-07T01:12:10.990Z,9.1
2022-10-07T01:13:17.159Z,9.1
2022-10-07T01:14:23.335Z,9.2
2022-10-07T01:15:29.492Z,9.2
2022-10-07T01:16:35.664Z,9.2
2022-10-07T01:17:41.851Z,9.2
2022-10-07T01:18:47.999Z,9.2
2022-10-07T01:19:54.184Z,9.2
2022-10-07T01:21:00.347Z,9.2
2022-10-07T01:22:06.504Z,9.3
2022-10-07T01:23:12.699Z,9.3
2022-10-07T01:24:17.866Z,9.4
2022-10-07T01:25:24.035Z,9.4
2022-10-07T01:26:30.212Z,9.5
2022-10-07T01:27:36.390Z,9.5
2022-10-07T01:28:42.545Z,9.5
2022-10-07T01:29:48.733Z,9.6
2022-10-07T01:30:54.879Z,9.6
2022-10-07T01:32:01.061Z,9.7
2022-10-07T01:33:07.234Z,9.7
2022-10-07T01:34:13.387Z,9.8
2022-10-07T01:35:19.573Z,9.8
2022-10-07T01:36:25.746Z,9.8
2022-10-07T01:37:31.921Z,9.9
2022-10-07T01:38:37.101Z,9.9
2022-10-07T01:39:43.290Z,10
2022-10-07T01:40:49.432Z,10
2022-10-07T01:41:55.598Z,10
2022-10-07T01:43:01.775Z,10.1
2022-10-07T01:44:07.936Z,10.1
2022-10-07T01:45:14.180Z,10.1
2022-10-07T01:46:20.277Z,10.2
2022-10-07T01:47:26.462Z,10.2
2022-10-07T01:48:32.645Z,10.2
2022-10-07T01:49:38.794Z,10.2
2022-10-07T01:50:44.970Z,10.3
2022-10-07T01:51:51.134Z,10.3
2022-10-07T01:52:56.312Z,10.3
2022-10-07T01:54:02.511Z,10.3
2022-10-07T01:55:08.648Z,10.3
2022-10-07T01:56:14.808Z,10.4
2022-10-07T01:57:21.009Z,10.4
2022-10-07T01:58:27.152Z,10.4
2022-10-07T01:59:33.338Z,10.4
2022-10-07T02:00:39.501Z,10.4
2022-10-07T02:01:45.669Z,10.5
2022-10-07T02:02:51.849Z,10.5
2022-10-07T02:03:58.005Z,10.5
2022-10-07T02:05:04.181Z,10.5
2022-10-07T02:06:10.338Z,10.5
2022-10-07T02:07:15.533Z,10.5
2022-10-07T02:08:21.706Z,10.5
2022-10-07T02:09:27.949Z,10.5
2022-10-07T02:10:34.039Z,10.5
2022-10-07T02:11:40.204Z,10.5
2022-10-07T02:12:46.385Z,10.6
2022-10-07T02:13:52.551Z,10.6
2022-10-07T02:14:58.707Z,10.6
2022-10-07T02:16:04.911Z,10.6
2022-10-07T02:17:11.057Z,10.6
2022-10-07T02:18:17.225Z,10.6
2022-10-07T02:19:23.392Z,10.6
2022-10-07T02:20:29.581Z,10.6
2022-10-07T02:21:34.751Z,10.6
2022-10-07T02:22:40.961Z,10.7
2022-10-07T02:23:47.079Z,10.8
2022-10-07T02:24:53.255Z,10.8
2022-10-07T02:25:59.433Z,10.8
2022-10-07T02:27:05.588Z,10.8
2022-10-07T02:28:11.758Z,10.8
2022-10-07T02:29:17.944Z,10.8
2022-10-07T02:30:24.105Z,10.7
2022-10-07T02:31:30.294Z,10.7
2022-10-07T02:32:36.448Z,10.7
2022-10-07T02:33:42.619Z,10.7
2022-10-07T02:34:48.790Z,10.7
2022-10-07T02:35:53.973Z,10.7
2022-10-07T02:37:00.145Z,10.7
2022-10-07T02:38:06.301Z,10.7
2022-10-07T02:39:12.490Z,10.6
2022-10-07T02:40:18.652Z,10.6
2022-10-07T02:41:24.810Z,10.6
2022-10-07T02:43:37.186Z,10.6
2022-10-07T02:44:43.325Z,10.6
2022-10-07T02:45:49.503Z,10.6
2022-10-07T02:46:55.664Z,10.5
2022-10-07T02:48:01.968Z,10.5
2022-10-07T02:49:08.024Z,10.5
2022-10-07T02:50:13.180Z,10.5
2022-10-07T02:51:19.381Z,10.5
2022-10-07T02:52:25.532Z,10.5
2022-10-07T02:53:31.718Z,10.5
2022-10-07T02:54:37.877Z,10.6
2022-10-07T02:55:44.026Z,10.6
2022-10-07T02:56:50.209Z,10.6
2022-10-07T02:57:56.469Z,10.5
2022-10-07T02:59:02.545Z,10.5
2022-10-07T03:00:08.724Z,10.5
2022-10-07T03:01:14.876Z,10.5
2022-10-07T03:02:21.044Z,10.5
2022-10-07T03:03:27.218Z,10.5
2022-10-07T03:04:32.409Z,10.5
2022-10-07T03:05:38.594Z,10.5
2022-10-07T03:06:44.737Z,10.4
2022-10-07T03:07:50.994Z,10.5
2022-10-07T03:08:57.083Z,10.5
2022-10-07T03:10:03.274Z,10.4
2022-10-07T03:11:09.415Z,10.4
2022-10-07T03:12:15.604Z,10.3
2022-10-07T03:13:21.769Z,10.3
2022-10-07T03:14:27.942Z,10.3
2022-10-07T03:15:34.114Z,10.3
2022-10-07T03:16:40.278Z,10.2
2022-10-07T03:17:46.532Z,10.2
2022-10-07T03:18:51.625Z,10.1
2022-10-07T03:19:57.798Z,10
2022-10-07T03:21:03.976Z,10
2022-10-07T03:22:10.134Z,9.9
2022-10-07T03:23:16.313Z,9.9
2022-10-07T03:24:22.516Z,9.8
2022-10-07T03:25:28.653Z,9.8
2022-10-07T03:26:34.812Z,9.8
2022-10-07T03:27:40.991Z,9.8
2022-10-07T03:28:47.154Z,9.7
2022-10-07T03:29:53.332Z,9.7
2022-10-07T03:30:59.491Z,9.7
2022-10-07T03:32:05.659Z,9.7
2022-10-07T03:33:10.856Z,9.7
2022-10-07T03:34:17.029Z,9.6
2022-10-07T03:35:23.201Z,9.6
2022-10-07T03:36:29.362Z,9.6
2022-10-07T03:37:35.622Z,9.6
2022-10-07T03:38:41.729Z,9.6
2022-10-07T03:39:47.856Z,9.5
2022-10-07T03:40:54.026Z,9.5
2022-10-07T03:42:00.209Z,9.5
2022-10-07T03:43:06.385Z,9.5
2022-10-07T03:44:12.551Z,9.5
2022-10-07T03:45:18.712Z,9.5
2022-10-07T03:46:24.879Z,9.5
2022-10-07T03:47:30.075Z,9.5
2022-10-07T03:48:36.239Z,9.5
2022-10-07T03:49:42.407Z,9.5
2022-10-07T03:50:48.570Z,9.5
2022-10-07T03:51:54.760Z,9.5
2022-10-07T03:53:00.908Z,9.5
2022-10-07T03:54:07.083Z,9.5
2022-10-07T03:55:13.258Z,9.5
2022-10-07T03:56:19.437Z,9.5
2022-10-07T03:57:25.591Z,9.4
2022-10-07T03:58:31.758Z,9.4
2022-10-07T03:59:37.935Z,9.4
2022-10-07T04:00:44.111Z,9.4
2022-10-07T04:01:49.291Z,9.4
2022-10-07T04:02:55.472Z,9.3
2022-10-07T04:04:01.621Z,9.3
2022-10-07T04:05:07.790Z,9.3
2022-10-07T04:06:13.954Z,9.3
2022-10-07T04:07:20.141Z,9.3
2022-10-07T04:08:25.333Z,9.3
2022-10-07T04:09:31.506Z,9.2
2022-10-07T04:10:37.656Z,9.2
2022-10-07T04:11:43.883Z,9.2
2022-10-07T04:12:49.996Z,9.2
2022-10-07T04:13:56.168Z,9.2
2022-10-07T04:15:02.363Z,9.2
2022-10-07T04:16:08.532Z,9.2
2022-10-07T04:17:14.683Z,9.2
2022-10-07T04:18:20.855Z,9.1
2022-10-07T04:19:27.009Z,9.1
2022-10-07T04:20:33.185Z,9.1
2022-10-07T04:21:39.413Z,9.1
2022-10-07T04:22:44.544Z,9.1
2022-10-07T04:23:50.708Z,9.1
2022-10-07T04:24:56.880Z,9
2022-10-07T04:26:03.095Z,9
2022-10-07T04:27:09.242Z,9
2022-10-07T04:28:15.384Z,9
2022-10-07T04:29:21.561Z,9
2022-10-07T04:30:27.739Z,9
2022-10-07T04:31:33.906Z,9
2022-10-07T04:32:40.118Z,9
2022-10-07T04:33:46.238Z,9
2022-10-07T04:34:52.408Z,9
2022-10-07T04:35:58.584Z,9
2022-10-07T04:37:03.754Z,9
2022-10-07T04:38:09.932Z,9
2022-10-07T04:39:16.122Z,9
2022-10-07T04:40:22.336Z,8.9
2022-10-07T04:41:28.448Z,8.9
2022-10-07T04:42:34.612Z,8.9
2022-10-07T04:43:40.785Z,8.8
2022-10-07T04:44:46.943Z,8.8
2022-10-07T04:45:53.119Z,8.8
2022-10-07T04:46:59.293Z,8.8
2022-10-07T04:48:05.458Z,8.8
2022-10-07T04:49:11.637Z,8.8
2022-10-07T04:50:17.793Z,8.7
2022-10-07T04:51:23.005Z,8.7
2022-10-07T04:52:29.145Z,8.7
2022-10-07T04:53:35.320Z,8.7
2022-10-07T04:54:41.499Z,8.7
2022-10-07T04:55:47.665Z,8.7
2022-10-07T04:56:53.832Z,8.6
2022-10-07T04:58:00.016Z,8.6
2022-10-07T04:59:06.177Z,8.6
2022-10-07T05:00:12.340Z,8.6
2022-10-07T05:01:18.513Z,8.6
2022-10-07T05:02:24.689Z,8.6
2022-10-07T05:03:30.850Z,8.6
2022-10-07T05:04:37.032Z,8.6
2022-10-07T05:05:42.208Z,8.6
2022-10-07T05:06:48.373Z,8.6
2022-10-07T05:07:54.553Z,8.6
2022-10-07T05:09:00.714Z,8.6
2022-10-07T05:11:13.060Z,8.5
2022-10-07T05:12:19.228Z,8.5
2022-10-07T05:13:25.405Z,8.5
2022-10-07T05:14:31.587Z,8.5
2022-10-07T05:15:37.719Z,8.5
2022-10-07T05:16:43.916Z,8.5
2022-10-07T05:17:50.071Z,8.5
2022-10-07T05:18:56.246Z,8.5
2022-10-07T05:20:01.429Z,8.5
2022-10-07T05:21:07.597Z,8.4
2022-10-07T05:22:13.757Z,8.4
2022-10-07T05:23:19.975Z,8.4
2022-10-07T05:24:26.116Z,8.5
2022-10-07T05:25:32.295Z,8.5
2022-10-07T05:26:38.455Z,8.5
2022-10-07T05:27:44.620Z,8.5
2022-10-07T05:28:50.772Z,8.4
2022-10-07T05:29:56.989Z,8.5
2022-10-07T05:31:03.176Z,8.5
2022-10-07T05:32:09.288Z,8.5
2022-10-07T05:33:15.477Z,8.5
2022-10-07T05:34:20.644Z,8.5
2022-10-07T05:35:26.811Z,8.5
2022-10-07T05:36:32.978Z,8.5
2022-10-07T05:37:39.171Z,8.5
2022-10-07T05:38:45.319Z,8.5
2022-10-07T05:39:51.489Z,8.5
2022-10-07T05:40:57.664Z,8.5
2022-10-07T05:42:03.853Z,8.5
2022-10-07T05:43:10.005Z,8.5
2022-10-07T05:44:16.187Z,8.5
2022-10-07T05:45:22.427Z,8.5
2022-10-07T05:46:28.510Z,8.5
2022-10-07T05:47:34.680Z,8.6
2022-10-07T05:48:39.865Z,8.6
2022-10-07T05:49:46.040Z,8.6
2022-10-07T05:50:52.210Z,8.6
2022-10-07T05:51:58.383Z,8.6
2022-10-07T05:53:04.546Z,8.6
2022-10-07T05:54:10.721Z,8.7
2022-10-07T05:55:16.895Z,8.7
2022-10-07T05:56:23.137Z,8.7
2022-10-07T05:57:29.237Z,8.7
2022-10-07T05:58:35.394Z,8.7
2022-10-07T05:59:41.556Z,8.8
2022-10-07T06:00:47.743Z,8.8
2022-10-07T06:01:53.907Z,8.8
2022-10-07T06:02:59.078Z,8.8
2022-10-07T06:04:05.271Z,8.8
2022-10-07T06:05:11.417Z,8.8
2022-10-07T06:06:17.596Z,8.8
2022-10-07T06:07:23.762Z,8.8
2022-10-07T06:08:29.944Z,8.8
2022-10-07T06:09:36.104Z,8.8
2022-10-07T06:10:42.269Z,8.9
2022-10-07T06:11:48.504Z,8.9
2022-10-07T06:12:54.638Z,8.9
2022-10-07T06:14:00.782Z,8.9
2022-10-07T06:15:06.969Z,8.9
2022-10-07T06:16:13.127Z,9
2022-10-07T06:17:18.308Z,9
2022-10-07T06:18:24.482Z,9
2022-10-07T06:19:30.642Z,9
2022-10-07T06:20:36.829Z,9.1
2022-10-07T06:21:42.984Z,9.1
2022-10-07T06:22:49.284Z,9.1
2022-10-07T06:23:55.323Z,9.1
2022-10-07T06:25:01.490Z,9.1
2022-10-07T06:26:07.664Z,9.1
2022-10-07T06:27:13.848Z,9.2
2022-10-07T06:28:20.012Z,9.2
2022-10-07T06:29:26.240Z,9.2
2022-10-07T06:30:32.352Z,9.2
2022-10-07T06:31:37.531Z,9.3
2022-10-07T06:32:43.749Z,9.3
2022-10-07T06:33:49.860Z,9.3
2022-10-07T06:34:56.041Z,9.3
2022-10-07T06:36:02.215Z,9.4
2022-10-07T06:37:08.388Z,9.4
2022-10-07T06:38:14.553Z,9.4
2022-10-07T06:39:20.720Z,9.5
2022-10-07T06:40:26.887Z,9.5
2022-10-07T06:41:33.045Z,9.5
2022-10-07T06:42:39.251Z,9.6
2022-10-07T06:43:45.392Z,9.6
2022-10-07T06:44:51.570Z,9.6
2022-10-07T06:45:56.759Z,9.6
2022-10-07T06:47:02.909Z,9.6
2022-10-07T06:48:09.097Z,9.7
2022-10-07T06:49:15.262Z,9.7
2022-10-07T06:50:21.427Z,9.7
2022-10-07T06:51:27.607Z,9.7
2022-10-07T06:52:33.783Z,9.8
2022-10-07T06:53:39.960Z,9.8
2022-10-07T06:54:46.112Z,9.9
2022-10-07T06:55:52.275Z,9.9
2022-10-07T06:56:58.439Z,10
2022-10-07T06:58:04.623Z,10
2022-10-07T06:59:10.793Z,10
2022-10-07T07:00:16.002Z,10.1
2022-10-07T07:01:22.148Z,10.2
2022-10-07T07:02:28.405Z,10.2
2022-10-07T07:03:34.519Z,10.3
2022-10-07T07:04:40.730Z,10.4
2022-10-07T07:05:46.842Z,10.4
2022-10-07T07:06:52.991Z,10.5
2022-10-07T07:07:59.185Z,10.6
2022-10-07T07:09:05.340Z,10.7
2022-10-07T07:10:11.488Z,10.8
2022-10-07T07:11:17.667Z,10.8
2022-10-07T07:12:23.960Z,10.8
2022-10-07T07:13:30.008Z,10.9
2022-10-07T07:14:35.192Z,10.9
2022-10-07T07:15:41.387Z,11
2022-10-07T07:16:47.592Z,11.1
2022-10-07T07:17:53.694Z,11.2
2022-10-07T07:18:59.862Z,11.2
2022-10-07T07:20:06.040Z,11.3
2022-10-07T07:21:12.263Z,11.3
2022-10-07T07:22:18.492Z,11.4
2022-10-07T07:23:24.539Z,11.4
2022-10-07T07:24:30.794Z,11.5
2022-10-07T07:25:36.891Z,11.5
2022-10-07T07:26:43.066Z,11.5
2022-10-07T07:27:49.217Z,11.6
2022-10-07T07:28:54.415Z,11.9
2022-10-07T07:30:00.722Z,12.2
2022-10-07T07:31:06.752Z,12.4
2022-10-07T07:32:12.936Z,12.4
2022-10-07T07:33:19.089Z,12.5
2022-10-07T07:34:25.263Z,12.5
2022-10-07T07:35:31.493Z,12.4
2022-10-07T07:36:37.586Z,12.4
2022-10-07T07:37:43.783Z,12.4
2022-10-07T07:38:49.936Z,12.5
2022-10-07T07:39:56.112Z,12.5
2022-10-07T07:41:02.278Z,12.5
2022-10-07T07:42:08.444Z,12.5
2022-10-07T07:43:13.630Z,12.6
2022-10-07T07:44:19.828Z,12.6
2022-10-07T07:45:25.966Z,12.6
2022-10-07T07:46:32.167Z,12.7
2022-10-07T07:47:38.477Z,12.8
2022-10-07T07:48:44.513Z,12.9
2022-10-07T07:49:49.717Z,13
2022-10-07T07:50:55.832Z,13
2022-10-07T07:52:02.018Z,13.1
2022-10-07T07:53:08.171Z,13.3
2022-10-07T07:54:14.336Z,13.4
2022-10-07T07:55:20.515Z,13.5
2022-10-07T07:56:26.680Z,13.6
2022-10-07T07:57:32.852Z,13.7
2022-10-07T07:59:47.803Z,13.9
2022-10-07T08:00:51.361Z,14
2022-10-07T08:01:57.531Z,14.1
2022-10-07T08:03:03.704Z,14.1
2022-10-07T08:04:08.920Z,14.1
2022-10-07T08:05:15.081Z,14.2
2022-10-07T08:06:21.226Z,14.3
2022-10-07T08:07:27.396Z,14.4
2022-10-07T08:08:33.559Z,14.4
2022-10-07T08:09:39.746Z,14.4
2022-10-07T08:10:45.909Z,14.5
2022-10-07T08:11:52.066Z,14.6
2022-10-07T08:12:58.259Z,14.6
2022-10-07T08:14:04.408Z,14.6
2022-10-07T08:15:10.615Z,14.6
2022-10-07T08:16:16.749Z,14.6
2022-10-07T08:17:22.931Z,14.6
2022-10-07T08:18:28.088Z,14.6
2022-10-07T08:19:34.303Z,14.7
2022-10-07T08:20:40.429Z,14.7
2022-10-07T08:21:46.673Z,14.7
2022-10-07T08:22:52.779Z,14.8
2022-10-07T08:23:58.935Z,14.9
2022-10-07T08:25:05.116Z,14.9
2022-10-07T08:26:11.299Z,15
2022-10-07T08:27:17.443Z,15.1
2022-10-07T08:28:23.620Z,15.2
2022-10-07T08:29:29.804Z,15.2
2022-10-07T08:30:35.999Z,15.3
2022-10-07T08:31:42.129Z,15.4
2022-10-07T08:32:47.383Z,15.4
2022-10-07T08:33:53.484Z,15.4
2022-10-07T08:34:59.651Z,15.3
2022-10-07T08:36:05.818Z,15.4
2022-10-07T08:37:12.012Z,15.4
2022-10-07T08:38:18.211Z,15.5
2022-10-07T08:39:24.335Z,15.6
2022-10-07T08:40:30.498Z,15.6
2022-10-07T08:41:36.672Z,15.6
2022-10-07T08:42:42.840Z,15.7
2022-10-07T08:43:49.009Z,15.8
2022-10-07T08:44:55.190Z,16
2022-10-07T08:46:01.362Z,16.2
2022-10-07T08:47:06.531Z,16.2
2022-10-07T08:48:12.794Z,16.4
2022-10-07T08:49:18.894Z,16.4
2022-10-07T08:50:25.152Z,16.7
2022-10-07T08:51:31.208Z,17
2022-10-07T08:52:37.387Z,17.1
2022-10-07T08:53:43.549Z,17.3
2022-10-07T08:54:49.733Z,17.1
2022-10-07T08:55:55.988Z,17.1
2022-10-07T08:57:02.161Z,16.9
2022-10-07T08:58:08.236Z,16.7
2022-10-07T08:59:14.395Z,16.8
2022-10-07T09:00:20.581Z,16.8
2022-10-07T09:01:25.756Z,17
2022-10-07T09:02:31.940Z,17.5
2022-10-07T09:03:38.120Z,18
2022-10-07T09:04:44.256Z,18.4
2022-10-07T09:05:50.475Z,18.1
2022-10-07T09:06:56.601Z,17.8
2022-10-07T09:08:02.761Z,18.1
2022-10-07T09:09:08.926Z,18.6
2022-10-07T09:10:15.115Z,18.8
2022-10-07T09:11:21.318Z,19.2
2022-10-07T09:12:27.481Z,19.3
2022-10-07T09:13:33.614Z,19.5
2022-10-07T09:14:39.803Z,19.5
2022-10-07T09:15:44.970Z,19.7
2022-10-07T09:16:51.132Z,20.2
2022-10-07T09:17:57.364Z,20.6
2022-10-07T09:19:03.479Z,20.5
2022-10-07T09:20:09.656Z,20.1
2022-10-07T09:21:15.810Z,20
2022-10-07T09:22:21.988Z,20.3
2022-10-07T09:23:28.185Z,20.7
2022-10-07T09:24:34.365Z,21.2
2022-10-07T09:25:40.516Z,21.7
2022-10-07T09:26:46.667Z,22.1
2022-10-07T09:27:52.838Z,22.5
2022-10-07T09:28:59.031Z,22.7
2022-10-07T09:30:04.195Z,22.5
2022-10-07T09:31:10.350Z,22.3
2022-10-07T09:32:16.529Z,22.5
2022-10-07T09:33:22.699Z,22.5
2022-10-07T09:34:28.895Z,22.4
2022-10-07T09:35:35.028Z,22.4
2022-10-07T09:36:41.238Z,22.5
2022-10-07T09:37:47.400Z,22.3
2022-10-07T09:38:53.561Z,21.9
2022-10-07T09:39:59.723Z,21.8
2022-10-07T09:41:05.876Z,22.1
2022-10-07T09:42:12.063Z,22.2
2022-10-07T09:43:18.211Z,22.4
2022-10-07T09:44:24.387Z,22.8
2022-10-07T09:45:29.564Z,22.9
2022-10-07T09:46:35.735Z,22.5
2022-10-07T09:47:41.991Z,22.6
2022-10-07T09:48:48.077Z,22.6
2022-10-07T09:49:54.255Z,22.5
2022-10-07T09:51:00.415Z,22.7
2022-10-07T09:52:06.727Z,22.6
2022-10-07T09:53:12.757Z,22.7
2022-10-07T09:54:18.962Z,23.1
2022-10-07T09:55:25.101Z,23.4
2022-10-07T09:56:31.267Z,23.6
2022-10-07T09:57:37.434Z,23.7
2022-10-07T09:58:43.623Z,23.9
2022-10-07T09:59:48.814Z,24.3
2022-10-07T10:00:54.982Z,24.4
2022-10-07T10:02:01.198Z,24.1
2022-10-07T10:03:07.364Z,23.8
2022-10-07T10:04:13.463Z,23.9
2022-10-07T10:05:19.634Z,24.3
2022-10-07T10:06:25.807Z,24.6
2022-10-07T10:07:31.980Z,24.7
2022-10-07T10:08:38.151Z,24.4
2022-10-07T10:09:44.322Z,24.3
2022-10-07T10:10:50.497Z,24.5
2022-10-07T10:11:56.647Z,24.7
2022-10-07T10:13:02.825Z,24.8
2022-10-07T10:14:08.005Z,24.9
2022-10-07T10:15:14.187Z,25.1
2022-10-07T10:16:20.354Z,25.1
2022-10-07T10:17:26.523Z,24.8
2022-10-07T10:18:32.689Z,25.1
2022-10-07T10:19:38.856Z,25.2
2022-10-07T10:20:45.039Z,25.2
2022-10-07T10:21:51.198Z,25.3
2022-10-07T10:22:57.393Z,25.4
2022-10-07T10:24:03.542Z,25.6
2022-10-07T10:25:09.703Z,25.7
2022-10-07T10:26:15.885Z,26
2022-10-07T10:27:22.035Z,26
2022-10-07T10:28:27.234Z,26.2
2022-10-07T10:29:33.442Z,26.2
2022-10-07T10:30:39.584Z,26.3
2022-10-07T10:31:45.742Z,26.4
2022-10-07T10:32:52.023Z,26.7
2022-10-07T10:33:58.087Z,26.8
2022-10-07T10:35:04.267Z,26.9
2022-10-07T10:36:10.442Z,27.1
2022-10-07T10:37:16.579Z,27.4
2022-10-07T10:38:22.759Z,27.6
2022-10-07T10:39:28.974Z,27.5
2022-10-07T10:40:35.086Z,27.4
2022-10-07T10:41:41.272Z,27.3
2022-10-07T10:42:46.591Z,27.3
2022-10-07T10:43:52.622Z,27.5
2022-10-07T10:44:58.885Z,27.5
2022-10-07T10:46:05.077Z,27.1
2022-10-07T10:47:11.282Z,27.2
2022-10-07T10:48:17.298Z,27.4
2022-10-07T10:49:23.472Z,27.6
2022-10-07T10:50:29.651Z,28
2022-10-07T10:51:35.903Z,27.9
2022-10-07T10:52:41.977Z,27.9
2022-10-07T10:53:48.149Z,27.8
2022-10-07T10:54:54.332Z,27.9
2022-10-07T10:56:00.488Z,27.7
2022-10-07T10:57:05.679Z,27.7
2022-10-07T10:58:11.840Z,27.8
2022-10-07T10:59:18.011Z,28.1
2022-10-07T11:00:24.186Z,28.1
2022-10-07T11:01:30.458Z,28.2
2022-10-07T11:02:36.533Z,28.2
2022-10-07T11:03:42.696Z,28.3
2022-10-07T11:04:48.873Z,28
2022-10-07T11:05:55.029Z,27.8
2022-10-07T11:07:01.232Z,28.1
2022-10-07T11:08:07.377Z,28.3
2022-10-07T11:09:13.542Z,28
2022-10-07T11:10:19.727Z,27.8
2022-10-07T11:11:25.010Z,28.2
2022-10-07T11:12:31.066Z,28.4
2022-10-07T11:13:37.227Z,28.3
2022-10-07T11:14:43.399Z,28.1
2022-10-07T11:15:49.583Z,28.1
2022-10-07T11:16:55.752Z,27.5
2022-10-07T11:18:01.921Z,27.3
2022-10-07T11:19:08.072Z,27.2
2022-10-07T11:20:14.260Z,27.2
2022-10-07T11:21:20.424Z,26.5
2022-10-07T11:22:26.697Z,26.4
2022-10-07T11:23:32.857Z,26.3
2022-10-07T11:24:38.954Z,26.2
2022-10-07T11:25:44.113Z,25.9
2022-10-07T11:26:50.290Z,25.9
2022-10-07T11:27:56.478Z,25.8
2022-10-07T11:29:02.634Z,25.9
2022-10-07T11:30:08.799Z,26.3
2022-10-07T11:31:13.985Z,26.6
2022-10-07T11:32:20.159Z,27.1
2022-10-07T11:33:26.340Z,27.1
2022-10-07T11:34:32.533Z,27.6
2022-10-07T11:35:38.664Z,27.9
2022-10-07T11:36:44.839Z,28.3
2022-10-07T11:37:51.016Z,28.2
2022-10-07T11:38:57.176Z,28
2022-10-07T11:40:03.350Z,28.3
2022-10-07T11:41:09.504Z,27.8
2022-10-07T11:42:15.683Z,27.7
2022-10-07T11:43:21.859Z,27.9
2022-10-07T11:44:28.022Z,28.1
2022-10-07T11:45:33.206Z,28
2022-10-07T11:46:39.379Z,28
2022-10-07T11:47:45.538Z,28
2022-10-07T11:48:51.717Z,27.8
2022-10-07T11:49:57.884Z,27.6
2022-10-07T11:51:04.056Z,27.5
2022-10-07T11:52:10.225Z,27.6
2022-10-07T11:53:16.391Z,27.5
2022-10-07T11:54:22.558Z,27.6
2022-10-07T11:55:28.736Z,27.7
2022-10-07T11:56:34.905Z,27.9
2022-10-07T11:57:41.081Z,28.4
2022-10-07T11:58:47.235Z,28.5
2022-10-07T11:59:52.426Z,28.9
2022-10-07T12:00:58.612Z,29
2022-10-07T12:02:04.773Z,29.5
2022-10-07T12:03:10.933Z,29.5
2022-10-07T12:04:17.093Z,28.8
2022-10-07T12:05:23.317Z,29.2
2022-10-07T12:06:29.472Z,29.2
2022-10-07T12:07:35.612Z,29
2022-10-07T12:08:41.790Z,28.5
2022-10-07T12:09:47.958Z,28.2
2022-10-07T12:10:54.121Z,28.1
2022-10-07T12:12:00.298Z,28.2
2022-10-07T12:13:06.460Z,28.2
2022-10-07T12:14:11.642Z,27.8
2022-10-07T12:15:17.808Z,27.7
2022-10-07T12:16:23.988Z,28
2022-10-07T12:17:30.171Z,28.1
2022-10-07T12:18:36.323Z,28.3
2022-10-07T12:19:42.510Z,28.4
2022-10-07T12:20:48.668Z,28.4
2022-10-07T12:21:54.847Z,28.7
2022-10-07T12:23:01.008Z,28.6
2022-10-07T12:24:07.173Z,29
2022-10-07T12:25:13.348Z,29.1
2022-10-07T12:26:19.567Z,29.3
2022-10-07T12:27:25.684Z,29.3
2022-10-07T12:28:30.859Z,29.3
2022-10-07T12:29:37.102Z,29.2
2022-10-07T12:30:43.232Z,29
2022-10-07T12:31:49.380Z,29
2022-10-07T12:32:55.547Z,29.1
2022-10-07T12:34:01.737Z,28.6
2022-10-07T12:35:07.969Z,28.4
2022-10-07T12:36:14.089Z,28.5
2022-10-07T12:37:20.225Z,28.4
2022-10-07T12:38:26.400Z,28.2
2022-10-07T12:39:32.562Z,27.8
2022-10-07T12:40:38.745Z,27.7
2022-10-07T12:41:44.897Z,27.9
2022-10-07T12:42:50.091Z,27.6
2022-10-07T12:43:56.267Z,27.6
2022-10-07T12:45:02.420Z,27.7
2022-10-07T12:46:08.605Z,27.7
2022-10-07T12:47:14.772Z,27.8
2022-10-07T12:48:20.995Z,27.8
2022-10-07T12:49:27.174Z,28
2022-10-07T12:50:33.281Z,28.1
2022-10-07T12:51:39.455Z,28
2022-10-07T12:52:45.613Z,28.2
2022-10-07T12:53:51.780Z,28.2
2022-10-07T12:54:57.945Z,28.5
2022-10-07T12:56:04.148Z,28.4
2022-10-07T12:57:09.339Z,28.6
2022-10-07T12:58:15.476Z,29
2022-10-07T12:59:21.688Z,29.3
2022-10-07T13:00:27.838Z,29.4
2022-10-07T13:01:33.991Z,29.5
2022-10-07T13:02:40.154Z,29.5
2022-10-07T13:03:46.327Z,29.1
2022-10-07T13:04:52.508Z,29.1
2022-10-07T13:05:58.661Z,29.3
2022-10-07T13:07:04.846Z,29.6
2022-10-07T13:08:11.013Z,29.9
2022-10-07T13:09:17.187Z,30
2022-10-07T13:10:23.358Z,30.1
2022-10-07T13:11:28.550Z,29.8
2022-10-07T13:12:34.708Z,30
2022-10-07T13:13:40.866Z,30.2
2022-10-07T13:14:47.050Z,30.1
2022-10-07T13:15:53.208Z,30.1
2022-10-07T13:16:59.399Z,29.4
2022-10-07T13:18:05.544Z,29.7
2022-10-07T13:19:11.717Z,29.4
2022-10-07T13:20:17.889Z,29.1
2022-10-07T13:21:24.050Z,28.8
2022-10-07T13:22:30.234Z,28.9
2022-10-07T13:23:36.398Z,29.1
2022-10-07T13:24:42.562Z,29
2022-10-07T13:25:47.746Z,29.2
2022-10-07T13:26:53.917Z,29.5
2022-10-07T13:28:00.109Z,29.6
2022-10-07T13:29:06.259Z,29.9
2022-10-07T13:30:12.426Z,30.1
2022-10-07T13:31:18.605Z,30.5
2022-10-07T13:32:24.786Z,30.6
2022-10-07T13:33:30.929Z,30.5
2022-10-07T13:34:37.116Z,30.2
2022-10-07T13:35:43.282Z,29.8
2022-10-07T13:36:49.499Z,30.1
2022-10-07T13:37:55.627Z,29.9
2022-10-07T13:39:01.795Z,29.7
2022-10-07T13:40:06.989Z,29.2
2022-10-07T13:41:13.146Z,29.3
2022-10-07T13:42:19.317Z,29.4
2022-10-07T13:43:25.487Z,29.3
2022-10-07T13:44:31.654Z,29.3
2022-10-07T13:45:37.817Z,29.2
2022-10-07T13:46:43.991Z,29.3
2022-10-07T13:47:50.160Z,29.4
2022-10-07T13:48:56.342Z,29.8
2022-10-07T13:50:02.503Z,30
2022-10-07T13:51:08.674Z,30.1
2022-10-07T13:52:14.864Z,30.3
2022-10-07T13:53:21.031Z,30
2022-10-07T13:54:26.209Z,30.1
2022-10-07T13:55:32.355Z,30
2022-10-07T13:56:38.538Z,30.1
2022-10-07T13:57:44.718Z,30.2
2022-10-07T13:58:50.866Z,30.5
2022-10-07T13:59:57.040Z,30.6
2022-10-07T14:01:03.208Z,30.3
2022-10-07T14:02:09.387Z,30
2022-10-07T14:04:21.761Z,29.9
2022-10-07T14:05:27.932Z,29.6
2022-10-07T14:06:34.062Z,29.8
2022-10-07T14:07:40.214Z,30
2022-10-07T14:08:45.425Z,30.2
2022-10-07T14:09:51.608Z,30
2022-10-07T14:10:57.770Z,30
2022-10-07T14:12:03.925Z,30.2
2022-10-07T14:13:10.095Z,30.1
2022-10-07T14:14:16.272Z,29.5
2022-10-07T14:15:22.469Z,29.5
2022-10-07T14:16:28.605Z,29.4
2022-10-07T14:17:34.771Z,29.6
2022-10-07T14:18:40.941Z,29.4
2022-10-07T14:19:47.101Z,29.7
2022-10-07T14:20:53.266Z,29.6
2022-10-07T14:21:59.455Z,29.4
2022-10-07T14:23:04.636Z,29
2022-10-07T14:24:10.799Z,29
2022-10-07T14:25:17.028Z,28.4
2022-10-07T14:26:23.153Z,28.2
2022-10-07T14:27:29.303Z,28.1
2022-10-07T14:28:35.486Z,28.5
2022-10-07T14:29:41.657Z,28.6
2022-10-07T14:30:47.808Z,28.2
2022-10-07T14:31:53.981Z,27.9
2022-10-07T14:33:00.157Z,27.7
2022-10-07T14:34:06.350Z,28.2
2022-10-07T14:35:12.559Z,28.7
2022-10-07T14:36:18.674Z,28.4
2022-10-07T14:37:23.870Z,28.3
2022-10-07T14:38:30.032Z,28.7
2022-10-07T14:39:36.184Z,29
2022-10-07T14:40:42.349Z,29
2022-10-07T14:41:48.543Z,29.1
2022-10-07T14:42:54.693Z,29
2022-10-07T14:44:00.864Z,28.5
2022-10-07T14:45:07.026Z,27.2
2022-10-07T14:46:13.228Z,26.3
2022-10-07T14:47:19.411Z,25.9
2022-10-07T14:48:25.543Z,25.7
2022-10-07T14:49:31.719Z,25.1
2022-10-07T14:50:37.883Z,24.6
2022-10-07T14:51:43.069Z,23.9
2022-10-07T14:52:49.223Z,23.4
2022-10-07T14:53:55.435Z,23.1
2022-10-07T14:55:01.601Z,22.6
2022-10-07T14:56:07.753Z,21.9
2022-10-07T14:57:13.924Z,21.6
2022-10-07T14:58:20.082Z,21.2
2022-10-07T14:59:26.263Z,20.9
2022-10-07T15:00:32.428Z,20.8